sensor_id;sensor_type;location;lat;lon;timestamp;P1;durP1;ratioP1;P2;durP2;ratioP2
42866;SDS011;39461;40.948;73.006;2023-02-15T00:00:54;170.57;;;107.28;;
42866;SDS011;39461;40.948;73.006;2023-02-15T00:03:29;178.55;;;114.05;;
42866;SDS011;39461;40.948;73.006;2023-02-15T00:06:02;180.10;;;113.45;;
42866;SDS011;39461;40.948;73.006;2023-02-15T00:08:31;186.40;;;114.45;;
42866;SDS011;39461;40.948;73.006;2023-02-15T00:11:07;194.98;;;120.00;;
42866;SDS011;39461;40.948;73.006;2023-02-15T00:13:43;202.82;;;124.20;;
42866;SDS011;39461;40.948;73.006;2023-02-15T00:16:18;177.52;;;116.50;;
42866;SDS011;39461;40.948;73.006;2023-02-15T00:18:52;184.32;;;117.10;;
42866;SDS011;39461;40.948;73.006;2023-02-15T00:21:26;192.20;;;123.25;;
42866;SDS011;39461;40.948;73.006;2023-02-15T00:23:55;262.65;;;198.20;;
42866;SDS011;39461;40.948;73.006;2023-02-15T00:26:29;288.58;;;213.05;;
42866;SDS011;39461;40.948;73.006;2023-02-15T00:29:02;363.90;;;293.13;;
42866;SDS011;39461;40.948;73.006;2023-02-15T00:31:35;314.98;;;247.60;;
42866;SDS011;39461;40.948;73.006;2023-02-15T00:34:22;245.50;;;182.40;;
42866;SDS011;39461;40.948;73.006;2023-02-15T00:36:56;216.32;;;142.68;;
42866;SDS011;39461;40.948;73.006;2023-02-15T00:39:31;192.95;;;126.05;;
42866;SDS011;39461;40.948;73.006;2023-02-15T00:45:04;183.75;;;119.60;;
42866;SDS011;39461;40.948;73.006;2023-02-15T00:47:39;184.82;;;118.13;;
42866;SDS011;39461;40.948;73.006;2023-02-15T00:50:13;190.32;;;122.80;;
42866;SDS011;39461;40.948;73.006;2023-02-15T00:52:48;191.43;;;124.90;;
42866;SDS011;39461;40.948;73.006;2023-02-15T00:55:23;199.57;;;130.88;;
42866;SDS011;39461;40.948;73.006;2023-02-15T00:57:58;193.18;;;124.30;;
42866;SDS011;39461;40.948;73.006;2023-02-15T01:00:33;198.45;;;127.20;;
42866;SDS011;39461;40.948;73.006;2023-02-15T01:03:12;203.90;;;127.88;;
42866;SDS011;39461;40.948;73.006;2023-02-15T01:05:48;207.52;;;132.70;;
42866;SDS011;39461;40.948;73.006;2023-02-15T01:08:22;205.43;;;132.40;;
42866;SDS011;39461;40.948;73.006;2023-02-15T01:10:55;213.70;;;136.20;;
42866;SDS011;39461;40.948;73.006;2023-02-15T01:13:28;203.27;;;130.75;;
42866;SDS011;39461;40.948;73.006;2023-02-15T01:16:03;195.93;;;125.93;;
42866;SDS011;39461;40.948;73.006;2023-02-15T01:18:37;201.88;;;126.65;;
42866;SDS011;39461;40.948;73.006;2023-02-15T01:21:12;200.50;;;126.63;;
42866;SDS011;39461;40.948;73.006;2023-02-15T01:26:47;214.40;;;136.70;;
42866;SDS011;39461;40.948;73.006;2023-02-15T01:29:22;228.68;;;151.15;;
42866;SDS011;39461;40.948;73.006;2023-02-15T01:31:57;239.93;;;151.85;;
42866;SDS011;39461;40.948;73.006;2023-02-15T01:34:33;232.88;;;148.52;;
42866;SDS011;39461;40.948;73.006;2023-02-15T01:37:08;242.38;;;151.95;;
42866;SDS011;39461;40.948;73.006;2023-02-15T01:42:40;237.32;;;148.05;;
42866;SDS011;39461;40.948;73.006;2023-02-15T01:45:21;239.48;;;146.20;;
42866;SDS011;39461;40.948;73.006;2023-02-15T01:48:00;220.00;;;141.93;;
42866;SDS011;39461;40.948;73.006;2023-02-15T01:50:39;237.95;;;143.20;;
42866;SDS011;39461;40.948;73.006;2023-02-15T01:53:17;245.50;;;155.15;;
42866;SDS011;39461;40.948;73.006;2023-02-15T01:58:53;255.57;;;158.15;;
42866;SDS011;39461;40.948;73.006;2023-02-15T02:01:27;247.32;;;156.55;;
42866;SDS011;39461;40.948;73.006;2023-02-15T02:07:01;252.60;;;158.00;;
42866;SDS011;39461;40.948;73.006;2023-02-15T02:09:37;237.10;;;152.70;;
42866;SDS011;39461;40.948;73.006;2023-02-15T02:12:12;225.32;;;148.35;;
42866;SDS011;39461;40.948;73.006;2023-02-15T02:14:47;239.73;;;152.52;;
42866;SDS011;39461;40.948;73.006;2023-02-15T02:27:57;249.27;;;160.43;;
42866;SDS011;39461;40.948;73.006;2023-02-15T02:33:23;270.77;;;170.60;;
42866;SDS011;39461;40.948;73.006;2023-02-15T02:36:14;268.30;;;174.88;;
42866;SDS011;39461;40.948;73.006;2023-02-15T02:49:37;304.50;;;193.43;;
42866;SDS011;39461;40.948;73.006;2023-02-15T02:58:14;293.33;;;184.27;;
42866;SDS011;39461;40.948;73.006;2023-02-15T03:03:49;315.40;;;195.05;;
42866;SDS011;39461;40.948;73.006;2023-02-15T03:06:29;264.00;;;158.82;;
42866;SDS011;39461;40.948;73.006;2023-02-15T03:09:10;252.50;;;154.73;;
42866;SDS011;39461;40.948;73.006;2023-02-15T03:11:53;261.88;;;157.35;;
42866;SDS011;39461;40.948;73.006;2023-02-15T03:14:26;246.57;;;152.57;;
42866;SDS011;39461;40.948;73.006;2023-02-15T03:17:01;253.93;;;159.70;;
42866;SDS011;39461;40.948;73.006;2023-02-15T03:22:34;271.92;;;173.93;;
42866;SDS011;39461;40.948;73.006;2023-02-15T03:25:14;281.85;;;182.77;;
42866;SDS011;39461;40.948;73.006;2023-02-15T03:27:53;262.45;;;168.30;;
42866;SDS011;39461;40.948;73.006;2023-02-15T03:30:29;266.92;;;168.98;;
42866;SDS011;39461;40.948;73.006;2023-02-15T03:33:05;263.23;;;164.30;;
42866;SDS011;39461;40.948;73.006;2023-02-15T03:35:52;266.92;;;162.88;;
42866;SDS011;39461;40.948;73.006;2023-02-15T03:38:29;244.50;;;154.77;;
42866;SDS011;39461;40.948;73.006;2023-02-15T03:41:06;268.70;;;169.30;;
42866;SDS011;39461;40.948;73.006;2023-02-15T03:43:48;271.65;;;177.88;;
42866;SDS011;39461;40.948;73.006;2023-02-15T03:46:36;257.85;;;173.73;;
42866;SDS011;39461;40.948;73.006;2023-02-15T03:49:21;252.60;;;162.52;;
42866;SDS011;39461;40.948;73.006;2023-02-15T03:51:57;266.70;;;168.70;;
42866;SDS011;39461;40.948;73.006;2023-02-15T03:54:32;325.52;;;200.30;;
42866;SDS011;39461;40.948;73.006;2023-02-15T03:57:21;326.85;;;212.05;;
42866;SDS011;39461;40.948;73.006;2023-02-15T04:03:15;327.67;;;211.10;;
42866;SDS011;39461;40.948;73.006;2023-02-15T04:05:52;328.63;;;208.38;;
42866;SDS011;39461;40.948;73.006;2023-02-15T04:08:27;311.95;;;196.68;;
42866;SDS011;39461;40.948;73.006;2023-02-15T04:11:19;293.00;;;186.15;;
42866;SDS011;39461;40.948;73.006;2023-02-15T04:13:52;320.23;;;197.20;;
42866;SDS011;39461;40.948;73.006;2023-02-15T04:16:29;308.45;;;196.07;;
42866;SDS011;39461;40.948;73.006;2023-02-15T04:19:04;285.77;;;182.27;;
42866;SDS011;39461;40.948;73.006;2023-02-15T04:21:49;269.85;;;169.98;;
42866;SDS011;39461;40.948;73.006;2023-02-15T04:24:37;251.30;;;158.48;;
42866;SDS011;39461;40.948;73.006;2023-02-15T04:27:29;233.35;;;150.30;;
42866;SDS011;39461;40.948;73.006;2023-02-15T04:30:04;224.50;;;141.43;;
42866;SDS011;39461;40.948;73.006;2023-02-15T04:32:38;235.38;;;147.77;;
42866;SDS011;39461;40.948;73.006;2023-02-15T04:35:11;244.15;;;153.50;;
42866;SDS011;39461;40.948;73.006;2023-02-15T04:37:45;255.75;;;159.98;;
42866;SDS011;39461;40.948;73.006;2023-02-15T04:40:20;247.63;;;156.60;;
42866;SDS011;39461;40.948;73.006;2023-02-15T04:42:54;248.80;;;155.70;;
42866;SDS011;39461;40.948;73.006;2023-02-15T04:45:29;254.40;;;156.18;;
42866;SDS011;39461;40.948;73.006;2023-02-15T04:48:04;265.83;;;163.63;;
42866;SDS011;39461;40.948;73.006;2023-02-15T04:53:35;252.77;;;155.88;;
42866;SDS011;39461;40.948;73.006;2023-02-15T04:56:14;255.15;;;158.40;;
42866;SDS011;39461;40.948;73.006;2023-02-15T04:58:49;252.45;;;156.70;;
42866;SDS011;39461;40.948;73.006;2023-02-15T05:01:24;262.27;;;161.95;;
42866;SDS011;39461;40.948;73.006;2023-02-15T05:03:59;258.85;;;161.13;;
42866;SDS011;39461;40.948;73.006;2023-02-15T05:06:35;262.67;;;163.93;;
42866;SDS011;39461;40.948;73.006;2023-02-15T05:09:10;213.68;;;134.75;;
42866;SDS011;39461;40.948;73.006;2023-02-15T05:11:44;238.48;;;147.20;;
42866;SDS011;39461;40.948;73.006;2023-02-15T05:14:19;224.85;;;144.93;;
42866;SDS011;39461;40.948;73.006;2023-02-15T05:16:54;247.15;;;159.00;;
42866;SDS011;39461;40.948;73.006;2023-02-15T05:19:30;247.07;;;155.23;;
42866;SDS011;39461;40.948;73.006;2023-02-15T05:22:05;246.23;;;154.77;;
42866;SDS011;39461;40.948;73.006;2023-02-15T05:24:40;236.05;;;151.43;;
42866;SDS011;39461;40.948;73.006;2023-02-15T05:27:34;234.88;;;150.27;;
42866;SDS011;39461;40.948;73.006;2023-02-15T05:30:33;238.13;;;152.05;;
42866;SDS011;39461;40.948;73.006;2023-02-15T05:33:07;233.15;;;146.45;;
42866;SDS011;39461;40.948;73.006;2023-02-15T05:35:42;226.00;;;143.48;;
42866;SDS011;39461;40.948;73.006;2023-02-15T05:38:16;235.40;;;152.20;;
42866;SDS011;39461;40.948;73.006;2023-02-15T05:40:51;241.10;;;154.70;;
42866;SDS011;39461;40.948;73.006;2023-02-15T05:43:25;233.70;;;152.98;;
42866;SDS011;39461;40.948;73.006;2023-02-15T05:46:00;240.43;;;153.55;;
42866;SDS011;39461;40.948;73.006;2023-02-15T05:48:35;229.20;;;146.95;;
42866;SDS011;39461;40.948;73.006;2023-02-15T05:51:11;241.43;;;150.25;;
42866;SDS011;39461;40.948;73.006;2023-02-15T05:53:48;233.20;;;149.82;;
42866;SDS011;39461;40.948;73.006;2023-02-15T05:56:27;243.50;;;155.13;;
42866;SDS011;39461;40.948;73.006;2023-02-15T05:59:02;242.35;;;153.55;;
42866;SDS011;39461;40.948;73.006;2023-02-15T06:01:36;242.65;;;153.73;;
42866;SDS011;39461;40.948;73.006;2023-02-15T06:04:09;232.60;;;147.90;;
42866;SDS011;39461;40.948;73.006;2023-02-15T06:06:44;224.05;;;142.27;;
42866;SDS011;39461;40.948;73.006;2023-02-15T06:09:19;215.70;;;132.80;;
42866;SDS011;39461;40.948;73.006;2023-02-15T06:11:53;207.10;;;130.55;;
42866;SDS011;39461;40.948;73.006;2023-02-15T06:14:32;202.63;;;128.65;;
42866;SDS011;39461;40.948;73.006;2023-02-15T06:17:08;219.27;;;135.07;;
42866;SDS011;39461;40.948;73.006;2023-02-15T06:19:43;239.65;;;144.10;;
42866;SDS011;39461;40.948;73.006;2023-02-15T06:22:10;302.90;;;199.45;;
42866;SDS011;39461;40.948;73.006;2023-02-15T06:24:41;240.98;;;150.40;;
42866;SDS011;39461;40.948;73.006;2023-02-15T06:27:14;226.68;;;141.38;;
42866;SDS011;39461;40.948;73.006;2023-02-15T06:29:48;264.73;;;158.43;;
42866;SDS011;39461;40.948;73.006;2023-02-15T06:35:20;269.10;;;169.25;;
42866;SDS011;39461;40.948;73.006;2023-02-15T06:37:54;246.95;;;160.43;;
42866;SDS011;39461;40.948;73.006;2023-02-15T06:40:27;257.38;;;168.77;;
42866;SDS011;39461;40.948;73.006;2023-02-15T06:43:02;238.88;;;149.20;;
42866;SDS011;39461;40.948;73.006;2023-02-15T06:45:37;239.77;;;151.10;;
42866;SDS011;39461;40.948;73.006;2023-02-15T06:48:12;239.48;;;151.10;;
42866;SDS011;39461;40.948;73.006;2023-02-15T06:50:47;238.20;;;149.25;;
42866;SDS011;39461;40.948;73.006;2023-02-15T06:53:22;234.60;;;144.90;;
42866;SDS011;39461;40.948;73.006;2023-02-15T06:56:06;223.65;;;137.85;;
42866;SDS011;39461;40.948;73.006;2023-02-15T06:58:42;239.98;;;145.88;;
42866;SDS011;39461;40.948;73.006;2023-02-15T07:01:19;232.27;;;142.63;;
42866;SDS011;39461;40.948;73.006;2023-02-15T07:06:53;245.60;;;150.20;;
42866;SDS011;39461;40.948;73.006;2023-02-15T07:09:33;247.43;;;156.25;;
42866;SDS011;39461;40.948;73.006;2023-02-15T07:12:09;259.95;;;156.15;;
42866;SDS011;39461;40.948;73.006;2023-02-15T07:15:05;211.90;;;129.88;;
42866;SDS011;39461;40.948;73.006;2023-02-15T07:17:41;202.90;;;119.65;;
42866;SDS011;39461;40.948;73.006;2023-02-15T07:20:17;177.52;;;112.50;;
42866;SDS011;39461;40.948;73.006;2023-02-15T07:22:52;184.70;;;113.65;;
42866;SDS011;39461;40.948;73.006;2023-02-15T07:25:25;191.13;;;115.97;;
42866;SDS011;39461;40.948;73.006;2023-02-15T07:28:01;204.18;;;122.80;;
42866;SDS011;39461;40.948;73.006;2023-02-15T07:30:35;202.95;;;125.68;;
42866;SDS011;39461;40.948;73.006;2023-02-15T07:33:13;225.07;;;136.07;;
42866;SDS011;39461;40.948;73.006;2023-02-15T07:35:56;216.27;;;131.18;;
42866;SDS011;39461;40.948;73.006;2023-02-15T07:38:31;215.88;;;133.45;;
42866;SDS011;39461;40.948;73.006;2023-02-15T07:41:07;257.88;;;150.95;;
42866;SDS011;39461;40.948;73.006;2023-02-15T07:43:43;266.80;;;157.15;;
42866;SDS011;39461;40.948;73.006;2023-02-15T07:46:18;280.27;;;163.77;;
42866;SDS011;39461;40.948;73.006;2023-02-15T07:48:54;283.08;;;163.43;;
42866;SDS011;39461;40.948;73.006;2023-02-15T07:51:27;280.25;;;163.50;;
42866;SDS011;39461;40.948;73.006;2023-02-15T07:54:07;264.65;;;157.80;;
42866;SDS011;39461;40.948;73.006;2023-02-15T07:56:42;271.42;;;157.73;;
42866;SDS011;39461;40.948;73.006;2023-02-15T07:59:18;276.80;;;159.20;;
42866;SDS011;39461;40.948;73.006;2023-02-15T08:01:53;274.92;;;159.15;;
42866;SDS011;39461;40.948;73.006;2023-02-15T08:04:21;264.67;;;156.73;;
42866;SDS011;39461;40.948;73.006;2023-02-15T08:06:57;272.20;;;162.80;;
42866;SDS011;39461;40.948;73.006;2023-02-15T08:09:30;278.70;;;161.20;;
42866;SDS011;39461;40.948;73.006;2023-02-15T08:12:03;270.90;;;159.40;;
42866;SDS011;39461;40.948;73.006;2023-02-15T08:14:39;333.73;;;210.82;;
42866;SDS011;39461;40.948;73.006;2023-02-15T08:17:13;276.45;;;179.57;;
42866;SDS011;39461;40.948;73.006;2023-02-15T08:19:48;238.95;;;147.40;;
42866;SDS011;39461;40.948;73.006;2023-02-15T08:22:17;231.30;;;138.80;;
42866;SDS011;39461;40.948;73.006;2023-02-15T08:24:46;253.75;;;156.80;;
42866;SDS011;39461;40.948;73.006;2023-02-15T08:27:21;272.27;;;163.55;;
42866;SDS011;39461;40.948;73.006;2023-02-15T08:30:00;267.42;;;161.30;;
42866;SDS011;39461;40.948;73.006;2023-02-15T08:32:33;249.65;;;145.45;;
42866;SDS011;39461;40.948;73.006;2023-02-15T08:35:08;233.90;;;142.98;;
42866;SDS011;39461;40.948;73.006;2023-02-15T08:37:45;252.85;;;148.35;;
42866;SDS011;39461;40.948;73.006;2023-02-15T08:40:18;248.82;;;148.35;;
42866;SDS011;39461;40.948;73.006;2023-02-15T08:42:53;239.70;;;144.65;;
42866;SDS011;39461;40.948;73.006;2023-02-15T08:45:33;246.68;;;146.13;;
42866;SDS011;39461;40.948;73.006;2023-02-15T08:48:08;267.45;;;153.40;;
42866;SDS011;39461;40.948;73.006;2023-02-15T08:50:41;257.77;;;153.60;;
42866;SDS011;39461;40.948;73.006;2023-02-15T08:53:15;257.13;;;147.80;;
42866;SDS011;39461;40.948;73.006;2023-02-15T08:55:55;262.08;;;158.43;;
42866;SDS011;39461;40.948;73.006;2023-02-15T08:58:29;265.05;;;158.32;;
42866;SDS011;39461;40.948;73.006;2023-02-15T09:01:08;280.70;;;169.07;;
42866;SDS011;39461;40.948;73.006;2023-02-15T09:03:41;280.23;;;170.43;;
42866;SDS011;39461;40.948;73.006;2023-02-15T09:06:17;270.73;;;169.07;;
42866;SDS011;39461;40.948;73.006;2023-02-15T09:08:52;273.80;;;161.25;;
42866;SDS011;39461;40.948;73.006;2023-02-15T09:11:28;264.80;;;152.50;;
42866;SDS011;39461;40.948;73.006;2023-02-15T09:14:07;256.25;;;151.25;;
42866;SDS011;39461;40.948;73.006;2023-02-15T09:16:41;250.25;;;149.00;;
42866;SDS011;39461;40.948;73.006;2023-02-15T09:19:20;244.98;;;145.02;;
42866;SDS011;39461;40.948;73.006;2023-02-15T09:21:53;219.48;;;130.52;;
42866;SDS011;39461;40.948;73.006;2023-02-15T09:24:27;240.45;;;142.43;;
42866;SDS011;39461;40.948;73.006;2023-02-15T09:27:01;238.00;;;140.25;;
42866;SDS011;39461;40.948;73.006;2023-02-15T09:29:35;247.80;;;147.85;;
42866;SDS011;39461;40.948;73.006;2023-02-15T09:32:13;225.57;;;134.30;;
42866;SDS011;39461;40.948;73.006;2023-02-15T09:34:47;244.10;;;143.50;;
42866;SDS011;39461;40.948;73.006;2023-02-15T09:37:22;258.98;;;152.43;;
42866;SDS011;39461;40.948;73.006;2023-02-15T09:39:57;222.15;;;130.80;;
42866;SDS011;39461;40.948;73.006;2023-02-15T09:42:42;254.43;;;144.45;;
42866;SDS011;39461;40.948;73.006;2023-02-15T09:48:08;217.57;;;128.60;;
42866;SDS011;39461;40.948;73.006;2023-02-15T09:56:19;227.57;;;134.13;;
42866;SDS011;39461;40.948;73.006;2023-02-15T10:01:57;217.23;;;130.02;;
42866;SDS011;39461;40.948;73.006;2023-02-15T10:09:56;238.68;;;139.63;;
42866;SDS011;39461;40.948;73.006;2023-02-15T10:15:31;240.63;;;142.90;;
42866;SDS011;39461;40.948;73.006;2023-02-15T10:18:18;298.30;;;170.70;;
42866;SDS011;39461;40.948;73.006;2023-02-15T10:32:31;268.35;;;152.48;;
42866;SDS011;39461;40.948;73.006;2023-02-15T10:47:31;217.10;;;130.73;;
42866;SDS011;39461;40.948;73.006;2023-02-15T10:52:49;220.85;;;136.25;;
42866;SDS011;39461;40.948;73.006;2023-02-15T10:55:31;227.35;;;138.90;;
42866;SDS011;39461;40.948;73.006;2023-02-15T10:58:14;254.45;;;154.00;;
42866;SDS011;39461;40.948;73.006;2023-02-15T11:00:54;274.63;;;164.02;;
42866;SDS011;39461;40.948;73.006;2023-02-15T11:03:35;271.88;;;157.55;;
42866;SDS011;39461;40.948;73.006;2023-02-15T11:15:34;259.38;;;153.10;;
42866;SDS011;39461;40.948;73.006;2023-02-15T11:18:12;254.77;;;151.30;;
42866;SDS011;39461;40.948;73.006;2023-02-15T11:23:28;265.67;;;160.90;;
42866;SDS011;39461;40.948;73.006;2023-02-15T11:26:08;263.23;;;153.90;;
42866;SDS011;39461;40.948;73.006;2023-02-15T11:31:24;304.13;;;188.77;;
42866;SDS011;39461;40.948;73.006;2023-02-15T11:33:59;319.25;;;198.93;;
42866;SDS011;39461;40.948;73.006;2023-02-15T11:36:37;283.00;;;174.30;;
42866;SDS011;39461;40.948;73.006;2023-02-15T11:39:12;322.05;;;187.77;;
42866;SDS011;39461;40.948;73.006;2023-02-15T11:41:49;350.25;;;206.27;;
42866;SDS011;39461;40.948;73.006;2023-02-15T11:44:31;307.50;;;180.55;;
42866;SDS011;39461;40.948;73.006;2023-02-15T11:47:11;303.02;;;182.02;;
42866;SDS011;39461;40.948;73.006;2023-02-15T11:52:43;308.42;;;190.18;;
42866;SDS011;39461;40.948;73.006;2023-02-15T11:55:22;292.40;;;177.02;;
42866;SDS011;39461;40.948;73.006;2023-02-15T12:00:50;256.55;;;156.73;;
42866;SDS011;39461;40.948;73.006;2023-02-15T12:03:42;260.15;;;157.23;;
42866;SDS011;39461;40.948;73.006;2023-02-15T12:06:25;281.73;;;172.77;;
42866;SDS011;39461;40.948;73.006;2023-02-15T12:09:20;295.65;;;183.15;;
42866;SDS011;39461;40.948;73.006;2023-02-15T12:14:55;315.60;;;193.18;;
42866;SDS011;39461;40.948;73.006;2023-02-15T12:17:30;339.17;;;206.38;;
42866;SDS011;39461;40.948;73.006;2023-02-15T12:20:29;310.88;;;191.80;;
42866;SDS011;39461;40.948;73.006;2023-02-15T12:22:58;288.95;;;173.30;;
42866;SDS011;39461;40.948;73.006;2023-02-15T12:25:32;279.83;;;169.85;;
42866;SDS011;39461;40.948;73.006;2023-02-15T12:31:07;268.02;;;158.10;;
42866;SDS011;39461;40.948;73.006;2023-02-15T12:33:42;277.33;;;164.00;;
42866;SDS011;39461;40.948;73.006;2023-02-15T12:36:18;301.27;;;177.40;;
42866;SDS011;39461;40.948;73.006;2023-02-15T12:39:02;287.73;;;178.35;;
42866;SDS011;39461;40.948;73.006;2023-02-15T12:41:36;296.40;;;176.32;;
42866;SDS011;39461;40.948;73.006;2023-02-15T12:44:18;304.00;;;180.57;;
42866;SDS011;39461;40.948;73.006;2023-02-15T12:49:36;309.88;;;182.90;;
42866;SDS011;39461;40.948;73.006;2023-02-15T12:58:06;308.77;;;184.05;;
42866;SDS011;39461;40.948;73.006;2023-02-15T13:00:41;285.77;;;167.40;;
42866;SDS011;39461;40.948;73.006;2023-02-15T13:03:22;279.98;;;164.48;;
42866;SDS011;39461;40.948;73.006;2023-02-15T13:05:56;275.40;;;158.98;;
42866;SDS011;39461;40.948;73.006;2023-02-15T13:08:31;275.48;;;164.18;;
42866;SDS011;39461;40.948;73.006;2023-02-15T13:11:08;307.00;;;183.45;;
42866;SDS011;39461;40.948;73.006;2023-02-15T13:16:32;312.98;;;187.95;;
42866;SDS011;39461;40.948;73.006;2023-02-15T13:19:10;294.80;;;172.38;;
42866;SDS011;39461;40.948;73.006;2023-02-15T13:21:49;298.83;;;170.05;;
42866;SDS011;39461;40.948;73.006;2023-02-15T13:24:25;299.80;;;173.88;;
42866;SDS011;39461;40.948;73.006;2023-02-15T13:26:59;317.67;;;179.80;;
42866;SDS011;39461;40.948;73.006;2023-02-15T13:29:33;316.48;;;180.95;;
42866;SDS011;39461;40.948;73.006;2023-02-15T13:32:10;295.23;;;169.88;;
42866;SDS011;39461;40.948;73.006;2023-02-15T13:34:44;300.65;;;167.02;;
42866;SDS011;39461;40.948;73.006;2023-02-15T13:37:19;304.00;;;168.88;;
42866;SDS011;39461;40.948;73.006;2023-02-15T13:39:58;306.27;;;172.07;;
42866;SDS011;39461;40.948;73.006;2023-02-15T14:01:47;339.98;;;192.07;;
42866;SDS011;39461;40.948;73.006;2023-02-15T14:07:27;346.70;;;194.48;;
42866;SDS011;39461;40.948;73.006;2023-02-15T14:18:27;328.60;;;182.88;;
42866;SDS011;39461;40.948;73.006;2023-02-15T14:31:41;328.77;;;194.25;;
42866;SDS011;39461;40.948;73.006;2023-02-15T14:34:23;361.98;;;209.52;;
42866;SDS011;39461;40.948;73.006;2023-02-15T14:43:00;344.50;;;194.65;;
42866;SDS011;39461;40.948;73.006;2023-02-15T14:45:41;348.38;;;204.60;;
42866;SDS011;39461;40.948;73.006;2023-02-15T14:50:51;352.75;;;208.10;;
42866;SDS011;39461;40.948;73.006;2023-02-15T15:01:32;315.20;;;188.43;;
42866;SDS011;39461;40.948;73.006;2023-02-15T15:09:40;346.80;;;200.68;;
42866;SDS011;39461;40.948;73.006;2023-02-15T15:12:36;334.10;;;195.55;;
42866;SDS011;39461;40.948;73.006;2023-02-15T15:15:50;350.58;;;203.60;;
42866;SDS011;39461;40.948;73.006;2023-02-15T15:18:10;341.88;;;196.77;;
42866;SDS011;39461;40.948;73.006;2023-02-15T15:21:04;362.25;;;206.60;;
42866;SDS011;39461;40.948;73.006;2023-02-15T15:23:38;390.60;;;225.93;;
42866;SDS011;39461;40.948;73.006;2023-02-15T15:28:58;383.48;;;218.88;;
42866;SDS011;39461;40.948;73.006;2023-02-15T15:31:39;420.40;;;230.02;;
42866;SDS011;39461;40.948;73.006;2023-02-15T15:40:41;300.13;;;169.00;;
42866;SDS011;39461;40.948;73.006;2023-02-15T15:43:42;310.98;;;176.65;;
42866;SDS011;39461;40.948;73.006;2023-02-15T15:49:02;256.13;;;141.23;;
42866;SDS011;39461;40.948;73.006;2023-02-15T15:51:40;261.02;;;146.50;;
42866;SDS011;39461;40.948;73.006;2023-02-15T15:54:20;231.25;;;133.60;;
42866;SDS011;39461;40.948;73.006;2023-02-15T15:56:59;212.98;;;124.80;;
42866;SDS011;39461;40.948;73.006;2023-02-15T15:59:34;225.25;;;129.88;;
42866;SDS011;39461;40.948;73.006;2023-02-15T16:02:09;242.55;;;140.27;;
42866;SDS011;39461;40.948;73.006;2023-02-15T16:04:49;229.95;;;132.63;;
42866;SDS011;39461;40.948;73.006;2023-02-15T16:07:24;225.13;;;133.63;;
42866;SDS011;39461;40.948;73.006;2023-02-15T16:10:06;217.60;;;127.40;;
42866;SDS011;39461;40.948;73.006;2023-02-15T16:12:40;208.63;;;123.22;;
42866;SDS011;39461;40.948;73.006;2023-02-15T16:15:14;228.15;;;130.50;;
42866;SDS011;39461;40.948;73.006;2023-02-15T16:17:48;228.70;;;130.18;;
42866;SDS011;39461;40.948;73.006;2023-02-15T16:20:26;199.75;;;119.25;;
42866;SDS011;39461;40.948;73.006;2023-02-15T16:23:22;223.73;;;132.63;;
42866;SDS011;39461;40.948;73.006;2023-02-15T16:26:07;230.52;;;134.38;;
42866;SDS011;39461;40.948;73.006;2023-02-15T16:28:49;216.05;;;126.60;;
42866;SDS011;39461;40.948;73.006;2023-02-15T16:31:23;227.02;;;132.13;;
42866;SDS011;39461;40.948;73.006;2023-02-15T16:33:58;217.95;;;128.60;;
42866;SDS011;39461;40.948;73.006;2023-02-15T16:39:33;217.15;;;124.03;;
42866;SDS011;39461;40.948;73.006;2023-02-15T16:42:15;197.45;;;119.70;;
42866;SDS011;39461;40.948;73.006;2023-02-15T16:47:50;226.23;;;128.57;;
42866;SDS011;39461;40.948;73.006;2023-02-15T16:50:31;220.15;;;126.63;;
42866;SDS011;39461;40.948;73.006;2023-02-15T16:53:06;206.75;;;118.35;;
42866;SDS011;39461;40.948;73.006;2023-02-15T16:55:47;204.13;;;119.80;;
42866;SDS011;39461;40.948;73.006;2023-02-15T16:58:26;195.90;;;111.93;;
42866;SDS011;39461;40.948;73.006;2023-02-15T17:04:11;190.32;;;110.22;;
42866;SDS011;39461;40.948;73.006;2023-02-15T17:06:56;184.65;;;110.55;;
42866;SDS011;39461;40.948;73.006;2023-02-15T17:09:32;178.55;;;105.55;;
42866;SDS011;39461;40.948;73.006;2023-02-15T17:12:08;161.23;;;99.32;;
42866;SDS011;39461;40.948;73.006;2023-02-15T17:14:44;166.82;;;95.93;;
42866;SDS011;39461;40.948;73.006;2023-02-15T17:17:19;170.23;;;99.95;;
42866;SDS011;39461;40.948;73.006;2023-02-15T17:19:55;160.25;;;94.90;;
42866;SDS011;39461;40.948;73.006;2023-02-15T17:22:32;142.90;;;89.13;;
42866;SDS011;39461;40.948;73.006;2023-02-15T17:25:05;147.10;;;89.47;;
42866;SDS011;39461;40.948;73.006;2023-02-15T17:27:40;156.05;;;93.30;;
42866;SDS011;39461;40.948;73.006;2023-02-15T17:30:24;136.43;;;86.97;;
42866;SDS011;39461;40.948;73.006;2023-02-15T17:32:59;168.50;;;97.22;;
42866;SDS011;39461;40.948;73.006;2023-02-15T17:35:33;142.05;;;86.47;;
42866;SDS011;39461;40.948;73.006;2023-02-15T17:38:15;142.95;;;88.13;;
42866;SDS011;39461;40.948;73.006;2023-02-15T17:40:49;149.23;;;92.20;;
42866;SDS011;39461;40.948;73.006;2023-02-15T17:43:22;139.60;;;90.60;;
42866;SDS011;39461;40.948;73.006;2023-02-15T17:45:56;138.02;;;88.53;;
42866;SDS011;39461;40.948;73.006;2023-02-15T17:48:33;128.85;;;82.82;;
42866;SDS011;39461;40.948;73.006;2023-02-15T17:51:11;135.20;;;85.70;;
42866;SDS011;39461;40.948;73.006;2023-02-15T17:53:46;130.88;;;82.47;;
42866;SDS011;39461;40.948;73.006;2023-02-15T17:56:40;129.80;;;81.60;;
42866;SDS011;39461;40.948;73.006;2023-02-15T17:59:16;128.43;;;80.63;;
42866;SDS011;39461;40.948;73.006;2023-02-15T18:05:15;127.45;;;78.93;;
42866;SDS011;39461;40.948;73.006;2023-02-15T18:08:11;132.13;;;83.05;;
42866;SDS011;39461;40.948;73.006;2023-02-15T18:11:05;170.00;;;99.63;;
42866;SDS011;39461;40.948;73.006;2023-02-15T18:13:59;169.05;;;101.47;;
42866;SDS011;39461;40.948;73.006;2023-02-15T18:16:35;176.25;;;103.70;;
42866;SDS011;39461;40.948;73.006;2023-02-15T18:19:12;175.18;;;104.65;;
42866;SDS011;39461;40.948;73.006;2023-02-15T18:21:42;232.98;;;135.00;;
42866;SDS011;39461;40.948;73.006;2023-02-15T18:24:15;206.75;;;118.63;;
42866;SDS011;39461;40.948;73.006;2023-02-15T18:26:49;198.85;;;106.88;;
42866;SDS011;39461;40.948;73.006;2023-02-15T18:29:23;151.82;;;94.32;;
42866;SDS011;39461;40.948;73.006;2023-02-15T18:31:56;164.77;;;94.90;;
42866;SDS011;39461;40.948;73.006;2023-02-15T18:34:34;151.57;;;92.93;;
42866;SDS011;39461;40.948;73.006;2023-02-15T18:37:16;156.82;;;92.03;;